createdAt,value
2024-04-23T00:00:25.296Z,78
2024-04-23T00:01:32.467Z,78
2024-04-23T00:02:39.568Z,78
2024-04-23T00:03:46.609Z,78
2024-04-23T00:04:53.201Z,78
2024-04-23T00:06:00.332Z,78
2024-04-23T00:07:07.403Z,78
2024-04-23T00:08:14.478Z,78
2024-04-23T00:09:21.715Z,78
2024-04-23T00:10:28.263Z,78
2024-04-23T00:11:35.455Z,78
2024-04-23T00:12:42.433Z,78
2024-04-23T00:13:49.677Z,78
2024-04-23T00:14:56.659Z,78
2024-04-23T00:16:03.269Z,78
2024-04-23T00:17:10.351Z,78
2024-04-23T00:19:24.519Z,78
2024-04-23T00:20:31.664Z,78
2024-04-23T00:21:38.320Z,78
2024-04-23T00:22:45.371Z,78
2024-04-23T00:23:52.397Z,78
2024-04-23T00:24:59.559Z,78
2024-04-23T00:26:06.639Z,78
2024-04-23T00:27:13.237Z,78
2024-04-23T00:29:27.475Z,78
2024-04-23T00:30:34.542Z,78
2024-04-23T00:31:41.679Z,78
2024-04-23T00:32:48.296Z,79
2024-04-23T00:33:55.346Z,79
2024-04-23T00:35:02.590Z,79
2024-04-23T00:36:09.585Z,79
2024-04-23T00:37:16.646Z,79
2024-04-23T00:38:23.236Z,79
2024-04-23T00:39:30.332Z,79
2024-04-23T00:40:37.582Z,79
2024-04-23T00:41:44.550Z,79
2024-04-23T00:42:51.674Z,79
2024-04-23T00:43:58.280Z,79
2024-04-23T00:45:05.348Z,80
2024-04-23T00:46:12.432Z,80
2024-04-23T00:47:20.209Z,80
2024-04-23T00:48:26.759Z,80
2024-04-23T00:49:33.314Z,80
2024-04-23T00:50:40.491Z,80
2024-04-23T00:51:47.483Z,80
2024-04-23T00:52:54.588Z,80
2024-04-23T00:54:01.681Z,80
2024-04-23T00:55:08.259Z,80
2024-04-23T00:56:15.368Z,80
2024-04-23T00:57:22.507Z,80
2024-04-23T00:58:29.631Z,80
2024-04-23T00:59:36.173Z,80
2024-04-23T01:00:43.275Z,80
2024-04-23T01:01:50.562Z,80
2024-04-23T01:02:57.634Z,80
2024-04-23T01:04:04.552Z,79
2024-04-23T01:05:11.779Z,79
2024-04-23T01:06:18.308Z,79
2024-04-23T01:07:25.391Z,79
2024-04-23T01:08:32.515Z,79
2024-04-23T01:09:39.603Z,79
2024-04-23T01:10:46.845Z,79
2024-04-23T01:11:53.389Z,80
2024-04-23T01:13:00.373Z,80
2024-04-23T01:14:07.574Z,80
2024-04-23T01:15:14.716Z,80
2024-04-23T01:16:21.732Z,79
2024-04-23T01:17:28.400Z,79
2024-04-23T01:18:35.482Z,79
2024-04-23T01:19:42.525Z,80
2024-04-23T01:20:49.614Z,80
2024-04-23T01:21:56.190Z,80
2024-04-23T01:23:03.358Z,80
2024-04-23T01:24:10.370Z,80
2024-04-23T01:25:17.552Z,80
2024-04-23T01:26:24.622Z,80
2024-04-23T01:27:31.280Z,80
2024-04-23T01:28:38.386Z,80
2024-04-23T01:29:48.523Z,80
2024-04-23T01:30:52.515Z,80
2024-04-23T01:33:06.287Z,80
2024-04-23T01:34:13.369Z,80
2024-04-23T01:35:20.432Z,80
2024-04-23T01:36:27.558Z,80
2024-04-23T01:37:34.618Z,80
2024-04-23T01:38:41.258Z,80
2024-04-23T01:39:48.785Z,80
2024-04-23T01:40:55.510Z,80
2024-04-23T01:42:02.543Z,81
2024-04-23T01:43:09.707Z,81
2024-04-23T01:44:16.254Z,81
2024-04-23T01:45:23.375Z,81
2024-04-23T01:47:37.720Z,81
2024-04-23T01:48:44.658Z,81
2024-04-23T01:49:51.249Z,81
2024-04-23T01:50:58.910Z,81
2024-04-23T01:52:05.558Z,81
2024-04-23T01:53:12.570Z,81
2024-04-23T01:54:19.672Z,81
2024-04-23T01:55:26.350Z,81
2024-04-23T01:56:33.357Z,81
2024-04-23T01:57:40.448Z,81
2024-04-23T01:58:47.625Z,81
2024-04-23T01:59:54.649Z,81
2024-04-23T02:01:01.252Z,81
2024-04-23T02:02:08.575Z,81
2024-04-23T02:03:15.539Z,81
2024-04-23T02:04:22.592Z,81
2024-04-23T02:05:29.685Z,81
2024-04-23T02:06:36.271Z,81
2024-04-23T02:07:43.422Z,81
2024-04-23T02:08:50.445Z,81
2024-04-23T02:09:57.600Z,81
2024-04-23T02:11:04.777Z,81
2024-04-23T02:12:11.276Z,81
2024-04-23T02:13:18.425Z,82
2024-04-23T02:14:25.455Z,81
2024-04-23T02:15:32.610Z,82
2024-04-23T02:16:39.699Z,82
2024-04-23T02:17:46.453Z,82
2024-04-23T02:18:53.349Z,82
2024-04-23T02:20:00.600Z,82
2024-04-23T02:21:07.622Z,82
2024-04-23T02:22:14.650Z,82
2024-04-23T02:23:22.364Z,82
2024-04-23T02:24:28.404Z,82
2024-04-23T02:25:35.532Z,82
2024-04-23T02:26:42.620Z,82
2024-04-23T02:27:49.732Z,82
2024-04-23T02:28:56.329Z,82
2024-04-23T02:30:03.425Z,82
2024-04-23T02:31:10.509Z,82
2024-04-23T02:32:17.763Z,82
2024-04-23T02:33:24.785Z,82
2024-04-23T02:34:31.322Z,82
2024-04-23T02:36:45.566Z,82
2024-04-23T02:37:52.887Z,82
2024-04-23T02:38:59.770Z,82
2024-04-23T02:40:07.294Z,82
2024-04-23T02:41:13.406Z,82
2024-04-23T02:42:20.523Z,82
2024-04-23T02:43:27.752Z,82
2024-04-23T02:44:34.763Z,82
2024-04-23T02:45:41.334Z,82
2024-04-23T02:46:48.464Z,82
2024-04-23T02:47:55.585Z,82
2024-04-23T02:49:02.628Z,82
2024-04-23T02:50:09.820Z,82
2024-04-23T02:51:16.359Z,82
2024-04-23T02:52:23.416Z,82
2024-04-23T02:53:30.524Z,82
2024-04-23T02:54:38.153Z,82
2024-04-23T02:55:44.746Z,82
2024-04-23T02:56:51.311Z,82
2024-04-23T02:57:58.502Z,83
2024-04-23T02:59:05.603Z,83
2024-04-23T03:00:12.665Z,83
2024-04-23T03:01:19.790Z,83
2024-04-23T03:02:26.412Z,83
2024-04-23T03:03:33.603Z,83
2024-04-23T03:04:40.590Z,83
2024-04-23T03:05:47.682Z,83
2024-04-23T03:06:54.743Z,83
2024-04-23T03:08:01.498Z,83
2024-04-23T03:09:08.546Z,83
2024-04-23T03:10:15.592Z,83
2024-04-23T03:11:22.743Z,83
2024-04-23T03:12:29.789Z,83
2024-04-23T03:13:36.415Z,83
2024-04-23T03:15:50.568Z,83
2024-04-23T03:16:57.715Z,83
2024-04-23T03:18:04.832Z,83
2024-04-23T03:19:11.346Z,83
2024-04-23T03:20:18.464Z,83
2024-04-23T03:21:25.592Z,83
2024-04-23T03:22:32.735Z,83
2024-04-23T03:23:39.790Z,83
2024-04-23T03:24:46.424Z,83
2024-04-23T03:25:53.513Z,83
2024-04-23T03:27:00.601Z,83
2024-04-23T03:28:07.691Z,83
2024-04-23T03:29:14.782Z,83
2024-04-23T03:30:21.378Z,83
2024-04-23T03:31:28.492Z,83
2024-04-23T03:32:35.710Z,83
2024-04-23T03:33:42.703Z,83
2024-04-23T03:34:49.903Z,83
2024-04-23T03:35:56.421Z,83
2024-04-23T03:37:03.555Z,83
2024-04-23T03:38:10.588Z,83
2024-04-23T03:40:24.830Z,83
2024-04-23T03:41:31.371Z,83
2024-04-23T03:42:38.594Z,83
2024-04-23T03:43:45.664Z,83
2024-04-23T03:44:52.667Z,83
2024-04-23T03:45:59.814Z,83
2024-04-23T03:47:06.492Z,83
2024-04-23T03:48:13.659Z,83
2024-04-23T03:49:20.618Z,83
2024-04-23T03:50:28.117Z,83
2024-04-23T03:51:34.852Z,83
2024-04-23T03:52:41.413Z,83
2024-04-23T03:53:48.542Z,84
2024-04-23T03:54:55.674Z,84
2024-04-23T03:56:02.885Z,84
2024-04-23T03:57:09.891Z,84
2024-04-23T03:58:16.948Z,84
2024-04-23T03:59:23.524Z,84
2024-04-23T04:00:30.605Z,84
2024-04-23T04:01:37.833Z,84
2024-04-23T04:02:45.082Z,84
2024-04-23T04:03:51.427Z,84
2024-04-23T04:04:58.619Z,84
2024-04-23T04:06:05.686Z,84
2024-04-23T04:07:12.748Z,84
2024-04-23T04:08:19.368Z,84
2024-04-23T04:09:26.430Z,84
2024-04-23T04:10:33.561Z,84
2024-04-23T04:11:41.167Z,84
2024-04-23T04:12:48.161Z,84
2024-04-23T04:13:54.330Z,84
2024-04-23T04:15:01.467Z,84
2024-04-23T04:16:08.622Z,84
2024-04-23T04:17:15.718Z,84
2024-04-23T04:18:22.810Z,84
2024-04-23T04:19:29.450Z,84
2024-04-23T04:20:36.473Z,84
2024-04-23T04:21:43.561Z,84
2024-04-23T04:22:50.711Z,84
2024-04-23T04:23:57.797Z,84
2024-04-23T04:25:04.473Z,84
2024-04-23T04:26:11.463Z,85
2024-04-23T04:27:18.570Z,84
2024-04-23T04:28:25.715Z,85
2024-04-23T04:29:32.781Z,85
2024-04-23T04:30:39.377Z,85
2024-04-23T04:31:46.484Z,85
2024-04-23T04:32:53.606Z,85
2024-04-23T04:34:00.638Z,85
2024-04-23T04:35:07.945Z,85
2024-04-23T04:36:14.419Z,85
2024-04-23T04:37:21.478Z,85
2024-04-23T04:38:28.609Z,85
2024-04-23T04:39:35.798Z,85
2024-04-23T04:40:42.829Z,85
2024-04-23T04:41:49.433Z,85
2024-04-23T04:42:56.520Z,85
2024-04-23T04:44:03.616Z,85
2024-04-23T04:45:10.694Z,85
2024-04-23T04:46:17.859Z,86
2024-04-23T04:47:24.445Z,86
2024-04-23T04:48:31.516Z,86
2024-04-23T04:49:38.670Z,86
2024-04-23T04:50:45.724Z,86
2024-04-23T04:51:52.831Z,86
2024-04-23T04:52:59.539Z,86
2024-04-23T04:54:06.557Z,86
2024-04-23T04:55:13.601Z,86
2024-04-23T04:56:20.691Z,86
2024-04-23T04:57:27.827Z,86
2024-04-23T04:58:34.490Z,86
2024-04-23T04:59:41.558Z,86
2024-04-23T05:00:48.629Z,86
2024-04-23T05:01:55.812Z,86
2024-04-23T05:03:02.810Z,86
2024-04-23T05:04:09.930Z,86
2024-04-23T05:05:16.501Z,87
2024-04-23T05:06:26.103Z,87
2024-04-23T05:07:30.796Z,87
2024-04-23T05:08:37.841Z,87
2024-04-23T05:09:44.384Z,87
2024-04-23T05:10:51.549Z,87
2024-04-23T05:11:58.682Z,87
2024-04-23T05:13:05.778Z,87
2024-04-23T05:14:12.808Z,87
2024-04-23T05:15:19.438Z,87
2024-04-23T05:16:26.537Z,87
2024-04-23T05:17:33.674Z,87
2024-04-23T05:18:40.724Z,87
2024-04-23T05:19:48.777Z,87
2024-04-23T05:20:54.439Z,87
2024-04-23T05:22:01.518Z,87
2024-04-23T05:23:08.784Z,87
2024-04-23T05:24:15.741Z,88
2024-04-23T05:25:24.451Z,87
2024-04-23T05:26:29.471Z,88
2024-04-23T05:27:36.576Z,88
2024-04-23T05:28:43.647Z,88
2024-04-23T05:29:50.814Z,88
2024-04-23T05:30:57.895Z,88
2024-04-23T05:32:04.533Z,88
2024-04-23T05:33:11.636Z,88
2024-04-23T05:34:18.674Z,88
2024-04-23T05:35:25.795Z,88
2024-04-23T05:36:33.020Z,88
2024-04-23T05:37:39.517Z,88
2024-04-23T05:38:47.780Z,88
2024-04-23T05:39:53.640Z,88
2024-04-23T05:41:00.918Z,88
2024-04-23T05:42:07.916Z,88
2024-04-23T05:43:14.480Z,88
2024-04-23T05:44:23.330Z,88
2024-04-23T05:45:28.660Z,88
2024-04-23T05:46:35.815Z,88
2024-04-23T05:47:42.996Z,88
2024-04-23T05:48:49.458Z,88
2024-04-23T05:49:56.634Z,89
2024-04-23T05:51:03.688Z,89
2024-04-23T05:52:19.351Z,89
2024-04-23T05:53:17.931Z,89
2024-04-23T05:54:24.433Z,89
2024-04-23T05:55:31.665Z,89
2024-04-23T05:56:38.713Z,89
2024-04-23T05:57:45.831Z,89
2024-04-23T05:58:53.244Z,89
2024-04-23T05:59:59.478Z,89
2024-04-23T06:01:06.629Z,89
2024-04-23T06:02:13.669Z,89
2024-04-23T06:03:20.943Z,89
2024-04-23T06:04:27.933Z,89
2024-04-23T06:05:35.049Z,89
2024-04-23T06:06:41.574Z,89
2024-04-23T06:07:48.695Z,89
2024-04-23T06:08:55.832Z,89
2024-04-23T06:10:02.905Z,89
2024-04-23T06:12:16.655Z,90
2024-04-23T06:13:23.682Z,90
2024-04-23T06:14:30.888Z,90
2024-04-23T06:15:37.934Z,90
2024-04-23T06:16:44.515Z,90
2024-04-23T06:17:51.684Z,90
2024-04-23T06:18:58.777Z,90
2024-04-23T06:20:05.858Z,90
2024-04-23T06:21:12.966Z,90
2024-04-23T06:22:19.559Z,90
2024-04-23T06:23:26.643Z,90
2024-04-23T06:24:33.715Z,90
2024-04-23T06:25:40.882Z,90
2024-04-23T06:26:47.960Z,90
2024-04-23T06:27:54.512Z,90
2024-04-23T06:29:01.687Z,90
2024-04-23T06:30:08.780Z,91
2024-04-23T06:31:15.828Z,91
2024-04-23T06:32:23.263Z,91
2024-04-23T06:33:29.548Z,91
2024-04-23T06:34:36.709Z,91
2024-04-23T06:35:43.743Z,91
2024-04-23T06:36:50.843Z,91
2024-04-23T06:37:58.020Z,91
2024-04-23T06:39:04.491Z,91
2024-04-23T06:40:11.670Z,91
2024-04-23T06:41:18.749Z,91
2024-04-23T06:42:25.870Z,91
2024-04-23T06:43:32.968Z,91
2024-04-23T06:44:39.535Z,91
2024-04-23T06:45:46.722Z,91
2024-04-23T06:46:53.758Z,91
2024-04-23T06:48:00.919Z,91
2024-04-23T06:49:07.984Z,91
2024-04-23T06:50:14.566Z,91
2024-04-23T06:51:21.815Z,91
2024-04-23T06:52:28.760Z,91
2024-04-23T06:53:35.895Z,91
2024-04-23T06:54:42.407Z,91
2024-04-23T06:55:49.588Z,91
2024-04-23T06:56:56.727Z,91
2024-04-23T06:58:03.787Z,91
2024-04-23T06:59:10.903Z,91
2024-04-23T07:00:17.480Z,91
2024-04-23T07:01:24.622Z,91
2024-04-23T07:02:31.898Z,91
2024-04-23T07:03:38.781Z,91
2024-04-23T07:04:45.967Z,91
2024-04-23T07:05:52.495Z,91
2024-04-23T07:06:59.630Z,91
2024-04-23T07:08:06.759Z,91
2024-04-23T07:10:20.918Z,91
2024-04-23T07:11:27.581Z,91
2024-04-23T07:12:34.655Z,91
2024-04-23T07:13:41.756Z,91
2024-04-23T07:14:48.857Z,91
2024-04-23T07:15:55.948Z,91
2024-04-23T07:17:02.714Z,91
2024-04-23T07:18:09.796Z,91
2024-04-23T07:19:16.834Z,91
2024-04-23T07:20:23.814Z,91
2024-04-23T07:21:30.975Z,91
2024-04-23T07:22:37.599Z,91
2024-04-23T07:23:44.570Z,91
2024-04-23T07:24:51.692Z,91
2024-04-23T07:25:58.894Z,91
2024-04-23T07:27:05.901Z,91
2024-04-23T07:28:12.487Z,91
2024-04-23T07:29:19.692Z,91
2024-04-23T07:30:26.774Z,91
2024-04-23T07:31:33.847Z,91
2024-04-23T07:32:41.100Z,91
2024-04-23T07:33:47.565Z,91
2024-04-23T07:34:54.673Z,91
2024-04-23T07:36:01.730Z,91
2024-04-23T07:37:08.924Z,92
2024-04-23T07:38:15.929Z,92
2024-04-23T07:40:29.730Z,92
2024-04-23T07:41:36.743Z,92
2024-04-23T07:42:43.842Z,92
2024-04-23T07:43:51.058Z,92
2024-04-23T07:44:57.508Z,92
2024-04-23T07:46:04.668Z,92
2024-04-23T07:47:11.864Z,92
2024-04-23T07:48:18.998Z,92
2024-04-23T07:49:25.941Z,92
2024-04-23T07:50:32.544Z,92
2024-04-23T07:51:39.645Z,91
2024-04-23T07:52:46.865Z,91
2024-04-23T07:53:53.850Z,91
2024-04-23T07:55:00.952Z,91
2024-04-23T07:56:07.625Z,91
2024-04-23T07:57:14.652Z,91
2024-04-23T07:58:21.769Z,91
2024-04-23T07:59:28.842Z,91
2024-04-23T08:00:35.951Z,91
2024-04-23T08:01:42.554Z,91
2024-04-23T08:02:49.708Z,91
2024-04-23T08:03:56.838Z,91
2024-04-23T08:05:03.913Z,90
2024-04-23T08:06:10.992Z,90
2024-04-23T08:07:17.555Z,90
2024-04-23T08:08:24.695Z,90
2024-04-23T08:09:31.740Z,90
2024-04-23T08:10:38.994Z,90
2024-04-23T08:11:46.061Z,90
2024-04-23T08:13:59.731Z,90
2024-04-23T08:15:06.891Z,90
2024-04-23T08:16:14.000Z,89
2024-04-23T08:17:21.161Z,89
2024-04-23T08:18:27.730Z,89
2024-04-23T08:19:34.675Z,89
2024-04-23T08:20:42.881Z,89
2024-04-23T08:21:48.908Z,89
2024-04-23T08:22:56.051Z,89
2024-04-23T08:24:02.691Z,88
2024-04-23T08:25:09.691Z,88
2024-04-23T08:26:17.238Z,88
2024-04-23T08:27:23.959Z,88
2024-04-23T08:28:30.458Z,88
2024-04-23T08:29:37.602Z,88
2024-04-23T08:30:44.752Z,88
2024-04-23T08:31:51.797Z,88
2024-04-23T08:32:59.063Z,88
2024-04-23T08:34:05.552Z,88
2024-04-23T08:35:12.582Z,88
2024-04-23T08:36:19.702Z,88
2024-04-23T08:37:26.825Z,88
2024-04-23T08:38:33.873Z,88
2024-04-23T08:39:40.484Z,88
2024-04-23T08:40:47.606Z,88
2024-04-23T08:41:54.762Z,88
2024-04-23T08:43:01.817Z,88
2024-04-23T08:44:09.115Z,88
2024-04-23T08:45:15.627Z,88
2024-04-23T08:46:22.616Z,88
2024-04-23T08:47:29.809Z,88
2024-04-23T08:48:36.955Z,88
2024-04-23T08:49:43.976Z,88
2024-04-23T08:50:50.498Z,88
2024-04-23T08:51:57.630Z,88
2024-04-23T08:53:04.797Z,88
2024-04-23T08:54:11.817Z,87
2024-04-23T08:55:19.001Z,88
2024-04-23T08:56:25.504Z,88
2024-04-23T08:57:32.634Z,87
2024-04-23T08:58:39.776Z,87
2024-04-23T08:59:51.003Z,87
2024-04-23T09:00:54.396Z,87
2024-04-23T09:02:00.575Z,87
2024-04-23T09:03:07.690Z,87
2024-04-23T09:04:14.832Z,87
2024-04-23T09:05:24.190Z,87
2024-04-23T09:06:28.931Z,87
2024-04-23T09:08:42.667Z,87
2024-04-23T09:09:49.750Z,87
2024-04-23T09:10:56.905Z,87
2024-04-23T09:12:03.972Z,87
2024-04-23T09:13:10.534Z,87
2024-04-23T09:14:17.704Z,87
2024-04-23T09:15:24.821Z,87
2024-04-23T09:17:39.084Z,87
2024-04-23T09:18:45.563Z,87
2024-04-23T09:19:52.844Z,87
2024-04-23T09:20:59.839Z,87
2024-04-23T09:22:09.611Z,86
2024-04-23T09:23:14.024Z,86
2024-04-23T09:24:20.559Z,86
2024-04-23T09:25:27.787Z,86
2024-04-23T09:26:34.788Z,86
2024-04-23T09:27:42.275Z,86
2024-04-23T09:28:49.092Z,86
2024-04-23T09:29:55.603Z,86
2024-04-23T09:31:02.660Z,86
2024-04-23T09:32:09.992Z,86
2024-04-23T09:33:16.955Z,86
2024-04-23T09:34:24.836Z,86
2024-04-23T09:35:30.576Z,86
2024-04-23T09:36:37.680Z,86
2024-04-23T09:37:44.822Z,86
2024-04-23T09:38:51.890Z,86
2024-04-23T09:39:59.020Z,86
2024-04-23T09:41:05.760Z,86
2024-04-23T09:42:12.698Z,86
2024-04-23T09:43:19.842Z,85
2024-04-23T09:44:26.938Z,85
2024-04-23T09:45:34.012Z,85
2024-04-23T09:46:40.595Z,85
2024-04-23T09:47:47.783Z,84
2024-04-23T09:48:54.901Z,84
2024-04-23T09:50:01.978Z,84
2024-04-23T09:51:08.974Z,84
2024-04-23T09:52:15.614Z,84
2024-04-23T09:53:22.731Z,84
2024-04-23T09:54:29.803Z,83
2024-04-23T09:55:36.949Z,83
2024-04-23T09:56:43.990Z,83
2024-04-23T09:57:50.586Z,83
2024-04-23T09:58:57.735Z,83
2024-04-23T10:00:04.819Z,83
2024-04-23T10:01:12.013Z,83
2024-04-23T10:02:19.267Z,83
2024-04-23T10:03:25.782Z,82
2024-04-23T10:04:32.844Z,82
2024-04-23T10:05:39.849Z,82
2024-04-23T10:06:46.989Z,81
2024-04-23T10:07:54.086Z,81
2024-04-23T10:09:00.651Z,80
2024-04-23T10:10:07.710Z,80
2024-04-23T10:11:14.924Z,80
2024-04-23T10:12:21.961Z,79
2024-04-23T10:13:29.184Z,79
2024-04-23T10:14:35.638Z,79
2024-04-23T10:15:42.745Z,78
2024-04-23T10:16:49.828Z,78
2024-04-23T10:17:57.035Z,77
2024-04-23T10:19:04.048Z,77
2024-04-23T10:21:17.776Z,76
2024-04-23T10:22:24.820Z,76
2024-04-23T10:23:31.983Z,76
2024-04-23T10:24:38.552Z,76
2024-04-23T10:25:45.736Z,75
2024-04-23T10:26:52.721Z,75
2024-04-23T10:27:59.836Z,75
2024-04-23T10:29:07.079Z,75
2024-04-23T10:30:13.555Z,75
2024-04-23T10:31:20.676Z,74
2024-04-23T10:32:27.961Z,74
2024-04-23T10:33:35.011Z,74
2024-04-23T10:34:41.986Z,74
2024-04-23T10:35:48.608Z,73
2024-04-23T10:36:55.618Z,73
2024-04-23T10:38:02.827Z,73
2024-04-23T10:39:09.904Z,72
2024-04-23T10:40:17.049Z,72
2024-04-23T10:41:23.615Z,72
2024-04-23T10:42:30.654Z,72
2024-04-23T10:43:38.322Z,72
2024-04-23T10:44:44.829Z,72
2024-04-23T10:45:51.987Z,71
2024-04-23T10:46:58.638Z,72
2024-04-23T10:48:05.804Z,72
2024-04-23T10:49:12.794Z,71
2024-04-23T10:50:20.033Z,71
2024-04-23T10:51:27.013Z,71
2024-04-23T10:52:33.600Z,71
2024-04-23T10:53:40.687Z,71
2024-04-23T10:54:47.801Z,71
2024-04-23T10:55:55.004Z,71
2024-04-23T10:57:01.976Z,70
2024-04-23T10:58:08.608Z,70
2024-04-23T10:59:15.728Z,69
2024-04-23T11:00:22.816Z,69
2024-04-23T11:01:29.998Z,69
2024-04-23T11:02:37.139Z,69
2024-04-23T11:03:43.741Z,69
2024-04-23T11:04:50.775Z,69
2024-04-23T11:05:58.182Z,68
2024-04-23T11:07:04.965Z,68
2024-04-23T11:08:12.036Z,69
2024-04-23T11:09:18.645Z,69
2024-04-23T11:10:25.694Z,69
2024-04-23T11:11:33.025Z,69
2024-04-23T11:13:47.062Z,69
2024-04-23T11:14:53.598Z,69
2024-04-23T11:16:00.871Z,68
2024-04-23T11:17:07.962Z,68
2024-04-23T11:18:15.335Z,68
2024-04-23T11:19:22.046Z,68
2024-04-23T11:20:28.638Z,68
2024-04-23T11:21:35.756Z,68
2024-04-23T11:22:42.849Z,68
2024-04-23T11:24:57.063Z,68
2024-04-23T11:26:03.636Z,68
2024-04-23T11:27:10.851Z,68
2024-04-23T11:28:17.815Z,68
2024-04-23T11:29:24.917Z,68
2024-04-23T11:30:31.486Z,68
2024-04-23T11:31:38.673Z,67
2024-04-23T11:32:45.852Z,67
2024-04-23T11:33:52.965Z,67
2024-04-23T11:35:00.009Z,67
2024-04-23T11:36:09.643Z,67
2024-04-23T11:37:13.620Z,67
2024-04-23T11:38:20.704Z,67
2024-04-23T11:39:27.883Z,67
2024-04-23T11:40:35.034Z,66
2024-04-23T11:41:41.527Z,66
2024-04-23T11:42:48.675Z,66
2024-04-23T11:43:55.838Z,66
2024-04-23T11:45:02.897Z,66
2024-04-23T11:46:10.047Z,66
2024-04-23T11:47:16.708Z,66
2024-04-23T11:48:23.729Z,66
2024-04-23T11:49:30.799Z,66
2024-04-23T11:50:37.901Z,66
2024-04-23T11:51:45.011Z,66
2024-04-23T11:52:51.534Z,65
2024-04-23T11:53:58.661Z,65
2024-04-23T11:55:05.750Z,65
2024-04-23T11:56:12.961Z,65
2024-04-23T11:57:20.087Z,65
2024-04-23T11:58:26.587Z,65
2024-04-23T11:59:33.693Z,65
2024-04-23T12:00:40.787Z,65
2024-04-23T12:01:47.938Z,64
2024-04-23T12:02:55.056Z,64
2024-04-23T12:04:01.671Z,63
2024-04-23T12:05:08.961Z,63
2024-04-23T12:06:15.875Z,63
2024-04-23T12:07:22.892Z,63
2024-04-23T12:08:30.026Z,64
2024-04-23T12:09:36.625Z,64
2024-04-23T12:10:43.690Z,64
2024-04-23T12:11:50.886Z,64
2024-04-23T12:12:57.938Z,63
2024-04-23T12:14:05.063Z,63
2024-04-23T12:15:11.541Z,63
2024-04-23T12:16:18.694Z,63
2024-04-23T12:17:25.980Z,63
2024-04-23T12:18:33.024Z,64
2024-04-23T12:19:40.064Z,64
2024-04-23T12:20:46.597Z,63
2024-04-23T12:21:53.687Z,64
2024-04-23T12:23:00.839Z,64
2024-04-23T12:24:07.952Z,64
2024-04-23T12:25:15.014Z,64
2024-04-23T12:26:21.593Z,64
2024-04-23T12:28:35.912Z,64
2024-04-23T12:29:42.898Z,64
2024-04-23T12:30:50.058Z,64
2024-04-23T12:31:56.794Z,64
2024-04-23T12:33:03.738Z,64
2024-04-23T12:34:10.800Z,64
2024-04-23T12:35:17.982Z,64
2024-04-23T12:36:24.467Z,64
2024-04-23T12:37:31.602Z,64
2024-04-23T12:38:38.750Z,64
2024-04-23T12:39:48.824Z,64
2024-04-23T12:42:00.051Z,65
2024-04-23T12:43:06.631Z,65
2024-04-23T12:44:13.785Z,65
2024-04-23T12:45:20.789Z,64
2024-04-23T12:46:27.936Z,64
2024-04-23T12:47:35.274Z,64
2024-04-23T12:48:41.667Z,64
2024-04-23T12:49:48.836Z,64
2024-04-23T12:50:55.905Z,64
2024-04-23T12:52:02.930Z,64
2024-04-23T12:53:09.574Z,64
2024-04-23T12:54:16.615Z,64
2024-04-23T12:55:23.702Z,64
2024-04-23T12:56:30.832Z,64
2024-04-23T12:57:37.970Z,64
2024-04-23T12:58:44.557Z,64
2024-04-23T12:59:51.603Z,65
2024-04-23T13:00:58.867Z,65
2024-04-23T13:02:05.935Z,65
2024-04-23T13:03:13.141Z,65
2024-04-23T13:04:19.699Z,64
2024-04-23T13:05:26.710Z,64
2024-04-23T13:06:33.767Z,64
2024-04-23T13:07:40.867Z,64
2024-04-23T13:08:48.009Z,64
2024-04-23T13:09:54.576Z,64
2024-04-23T13:11:01.772Z,64
2024-04-23T13:12:08.804Z,64
2024-04-23T13:13:15.894Z,64
2024-04-23T13:14:22.970Z,64
2024-04-23T13:15:29.615Z,64
2024-04-23T13:16:45.761Z,63
2024-04-23T13:17:43.886Z,63
2024-04-23T13:18:50.943Z,64
2024-04-23T13:20:00.967Z,64
2024-04-23T13:21:04.604Z,64
2024-04-23T13:22:11.702Z,64
2024-04-23T13:23:18.843Z,64
2024-04-23T13:24:25.932Z,64
2024-04-23T13:25:32.980Z,64
2024-04-23T13:26:39.644Z,64
2024-04-23T13:27:46.736Z,64
2024-04-23T13:28:53.866Z,63
2024-04-23T13:30:00.922Z,63
2024-04-23T13:32:14.740Z,64
2024-04-23T13:33:21.811Z,64
2024-04-23T13:34:28.826Z,64
2024-04-23T13:35:35.942Z,64
2024-04-23T13:36:43.023Z,64
2024-04-23T13:37:49.623Z,64
2024-04-23T13:38:56.749Z,64
2024-04-23T13:40:03.930Z,63
2024-04-23T13:41:10.933Z,63
2024-04-23T13:42:18.020Z,63
2024-04-23T13:43:24.902Z,63
2024-04-23T13:44:31.774Z,63
2024-04-23T13:45:38.803Z,64
2024-04-23T13:46:45.987Z,64
2024-04-23T13:47:53.114Z,64
2024-04-23T13:48:59.655Z,64
2024-04-23T13:50:06.739Z,64
2024-04-23T13:51:13.781Z,63
2024-04-23T13:52:20.917Z,63
2024-04-23T13:53:28.009Z,63
2024-04-23T13:54:34.616Z,62
2024-04-23T13:55:41.745Z,62
2024-04-23T13:56:48.853Z,62
2024-04-23T13:57:55.967Z,62
2024-04-23T13:59:02.579Z,63
2024-04-23T14:00:09.642Z,62
2024-04-23T14:01:16.786Z,62
2024-04-23T14:02:23.881Z,62
2024-04-23T14:03:31.018Z,62
2024-04-23T14:04:38.104Z,62
2024-04-23T14:05:46.700Z,62
2024-04-23T14:06:51.733Z,62
2024-04-23T14:07:58.933Z,62
2024-04-23T14:10:13.007Z,63
2024-04-23T14:11:19.798Z,62
2024-04-23T14:12:26.732Z,62
2024-04-23T14:13:33.853Z,62
2024-04-23T14:14:40.959Z,62
2024-04-23T14:15:48.154Z,62
2024-04-23T14:16:54.715Z,62
2024-04-23T14:18:01.784Z,61
2024-04-23T14:19:08.974Z,61
2024-04-23T14:20:16.023Z,60
2024-04-23T14:21:23.053Z,60
2024-04-23T14:22:29.664Z,59
2024-04-23T14:23:36.783Z,59
2024-04-23T14:24:43.843Z,59
2024-04-23T14:25:51.015Z,59
2024-04-23T14:26:57.582Z,58
2024-04-23T14:28:04.672Z,58
2024-04-23T14:29:11.907Z,58
2024-04-23T14:30:18.894Z,58
2024-04-23T14:31:26.005Z,58
2024-04-23T14:32:32.636Z,58
2024-04-23T14:33:39.701Z,57
2024-04-23T14:35:53.883Z,57
2024-04-23T14:37:00.995Z,57
2024-04-23T14:38:07.702Z,57
2024-04-23T14:39:14.665Z,57
2024-04-23T14:40:21.752Z,57
2024-04-23T14:41:28.943Z,58
2024-04-23T14:42:35.973Z,58
2024-04-23T14:43:42.629Z,57
2024-04-23T14:44:49.725Z,57
2024-04-23T14:45:56.823Z,57
2024-04-23T14:47:03.998Z,57
2024-04-23T14:48:11.086Z,57
2024-04-23T14:49:26.515Z,57
2024-04-23T14:50:24.677Z,57
2024-04-23T14:51:31.805Z,57
2024-04-23T14:52:38.936Z,57
2024-04-23T14:53:46.536Z,57
2024-04-23T14:54:52.636Z,57
2024-04-23T14:55:59.772Z,57
2024-04-23T14:57:06.825Z,56
2024-04-23T14:58:13.887Z,55
2024-04-23T14:59:21.082Z,56
2024-04-23T15:00:27.859Z,56
2024-04-23T15:01:34.699Z,56
2024-04-23T15:02:41.821Z,56
2024-04-23T15:03:49.090Z,55
2024-04-23T15:04:56.157Z,55
2024-04-23T15:06:02.616Z,55
2024-04-23T15:07:09.762Z,55
2024-04-23T15:08:16.931Z,55
2024-04-23T15:09:23.930Z,55
2024-04-23T15:10:31.052Z,56
2024-04-23T15:11:37.712Z,56
2024-04-23T15:12:44.721Z,56
2024-04-23T15:13:51.861Z,56
2024-04-23T15:14:58.955Z,56
2024-04-23T15:16:06.071Z,56
2024-04-23T15:17:14.079Z,56
2024-04-23T15:18:19.793Z,56
2024-04-23T15:19:26.822Z,56
2024-04-23T15:20:33.920Z,55
2024-04-23T15:21:41.027Z,55
2024-04-23T15:22:47.698Z,55
2024-04-23T15:23:54.735Z,55
2024-04-23T15:25:01.855Z,55
2024-04-23T15:26:09.035Z,55
2024-04-23T15:27:16.054Z,55
2024-04-23T15:28:22.637Z,56
2024-04-23T15:29:29.754Z,56
2024-04-23T15:30:36.874Z,56
2024-04-23T15:31:44.049Z,56
2024-04-23T15:32:53.864Z,56
2024-04-23T15:33:57.731Z,57
2024-04-23T15:35:04.770Z,57
2024-04-23T15:36:17.023Z,57
2024-04-23T15:38:25.615Z,57
2024-04-23T15:39:32.719Z,58
2024-04-23T15:40:39.932Z,58
2024-04-23T15:41:46.875Z,58
2024-04-23T15:42:54.007Z,58
2024-04-23T15:44:01.078Z,58
2024-04-23T15:45:07.686Z,58
2024-04-23T15:46:14.857Z,58
2024-04-23T15:47:21.915Z,58
2024-04-23T15:48:29.132Z,59
2024-04-23T15:49:36.119Z,58
2024-04-23T15:50:42.671Z,59
2024-04-23T15:51:49.827Z,59
2024-04-23T15:52:56.951Z,59
2024-04-23T15:54:04.038Z,59
2024-04-23T15:55:11.113Z,59
2024-04-23T15:56:17.723Z,59
2024-04-23T15:57:25.375Z,59
2024-04-23T15:58:31.906Z,59
2024-04-23T15:59:39.011Z,59
2024-04-23T16:00:46.173Z,59
2024-04-23T16:01:52.829Z,60
2024-04-23T16:02:59.892Z,60
2024-04-23T16:04:07.017Z,60
2024-04-23T16:05:14.100Z,60
2024-04-23T16:06:20.597Z,60
2024-04-23T16:07:27.701Z,60
2024-04-23T16:08:34.909Z,60
2024-04-23T16:09:41.950Z,60
2024-04-23T16:10:49.223Z,60
2024-04-23T16:11:55.690Z,59
2024-04-23T16:13:02.681Z,59
2024-04-23T16:14:09.848Z,59
2024-04-23T16:15:16.946Z,59
2024-04-23T16:16:24.007Z,59
2024-04-23T16:17:30.710Z,59
2024-04-23T16:18:37.893Z,59
2024-04-23T16:19:44.787Z,59